Time;durP1;ratioP1;P1;durP2;ratioP2;P2;SDS_P1;SDS_P2;PMS_P1;PMS_P2;Temp;Humidity;BMP_temperature;BMP_pressure;BME280_temperature;BME280_humidity;BME280_pressure;Samples;Min_cycle;Max_cycle;Signal;HPM_P1;HPM_P2
2023/08/10 00:00:08;;;;;;;0.10;0.10;;;16.20;99.90;;;;;;5053250;28;20478;-73
2023/08/10 00:02:35;;;;;;;0.00;0.00;;;16.40;99.90;;;;;;5033196;28;20036;-74
2023/08/10 00:05:01;;;;;;;3.50;3.20;;;16.30;99.90;;;;;;5053120;28;20838;-73
2023/08/10 00:07:26;;;;;;;0.08;0.08;;;16.60;99.90;;;;;;5052296;28;20469;-73
2023/08/10 00:09:52;;;;;;;0.90;0.90;;;16.50;99.90;;;;;;5052601;28;20025;-73
2023/08/10 00:12:18;;;;;;;0.00;0.00;;;16.70;99.90;;;;;;5052134;28;20492;-73
2023/08/10 00:14:44;;;;;;;0.00;0.00;;;16.60;99.90;;;;;;5051035;28;20473;-73
2023/08/10 00:17:09;;;;;;;0.00;0.00;;;16.90;99.90;;;;;;5052808;28;20167;-73
2023/08/10 00:19:35;;;;;;;0.00;0.00;;;16.80;99.90;;;;;;5052108;28;20096;-74
2023/08/10 00:22:01;;;;;;;0.15;0.10;;;16.90;99.90;;;;;;5051780;28;20040;-73
2023/08/10 00:24:27;;;;;;;0.00;0.00;;;16.60;99.90;;;;;;5053537;28;20029;-73
2023/08/10 00:26:53;;;;;;;0.00;0.00;;;16.70;99.90;;;;;;5053328;28;20021;-73
2023/08/10 00:29:18;;;;;;;0.38;0.38;;;16.60;99.90;;;;;;5034104;28;20128;-73
2023/08/10 00:31:44;;;;;;;0.17;0.15;;;16.40;99.90;;;;;;5051610;28;20433;-73
2023/08/10 00:34:10;;;;;;;0.00;0.00;;;16.50;99.90;;;;;;5033766;28;20025;-73
2023/08/10 00:36:36;;;;;;;0.88;0.88;;;16.50;99.90;;;;;;5053025;28;20096;-74
2023/08/10 00:39:02;;;;;;;0.00;0.00;;;16.50;99.90;;;;;;5033875;28;20033;-74
2023/08/10 00:41:28;;;;;;;0.10;0.10;;;16.50;99.90;;;;;;5051295;28;20021;-73
2023/08/10 00:43:54;;;;;;;0.22;0.22;;;16.70;99.90;;;;;;5033398;28;20444;-73
2023/08/10 00:46:20;;;;;;;0.20;0.10;;;16.70;99.90;;;;;;5030194;28;20436;-73
2023/08/10 00:48:46;;;;;;;11.40;3.13;;;16.20;99.90;;;;;;5050225;28;20481;-73
2023/08/10 00:51:12;;;;;;;0.10;0.10;;;15.80;99.90;;;;;;5034409;28;20025;-73
2023/08/10 00:53:39;;;;;;;0.00;0.00;;;16.00;99.90;;;;;;5048550;28;20075;-73
2023/08/10 00:56:06;;;;;;;0.00;0.00;;;16.10;99.90;;;;;;5033589;28;20503;-73
2023/08/10 00:58:32;;;;;;;0.00;0.00;;;16.20;99.90;;;;;;5019400;28;20029;-73
2023/08/10 01:00:58;;;;;;;0.17;0.17;;;16.20;99.90;;;;;;5031443;28;20041;-73
2023/08/10 01:03:24;;;;;;;0.00;0.00;;;16.30;99.90;;;;;;5035308;28;20029;-73
2023/08/10 01:05:58;;;;;;;0.00;0.00;;;16.30;99.90;;;;;;5035753;28;20542;-73
2023/08/10 01:08:35;;;;;;;0.10;0.10;;;16.40;99.90;;;;;;5053073;28;20029;-73
2023/08/10 01:11:32;;;;;;;0.10;0.10;;;16.50;99.90;;;;;;5035662;28;20532;-73
2023/08/10 01:14:28;;;;;;;0.10;0.10;;;16.30;99.90;;;;;;5035289;28;20021;-73
2023/08/10 01:16:57;;;;;;;0.00;0.00;;;16.20;99.90;;;;;;5052991;28;20107;-73
2023/08/10 01:19:33;;;;;;;0.00;0.00;;;16.20;99.90;;;;;;5053362;28;20025;-73
2023/08/10 01:22:07;;;;;;;0.00;0.00;;;16.30;99.90;;;;;;5034730;28;20119;-73
2023/08/10 01:24:40;;;;;;;0.00;0.00;;;16.50;99.90;;;;;;5035242;28;20049;-73
2023/08/10 01:27:12;;;;;;;0.00;0.00;;;16.60;99.90;;;;;;5035105;28;20029;-74
2023/08/10 01:29:38;;;;;;;0.00;0.00;;;16.70;99.90;;;;;;5035018;28;20029;-73
2023/08/10 01:32:05;;;;;;;0.00;0.00;;;16.70;99.90;;;;;;5053138;28;20029;-73
2023/08/10 01:34:30;;;;;;;0.00;0.00;;;16.60;99.90;;;;;;5018900;28;20020;-73
2023/08/10 01:36:57;;;;;;;0.00;0.00;;;16.50;99.90;;;;;;5052685;28;20025;-73
2023/08/10 01:39:23;;;;;;;0.00;0.00;;;16.30;99.90;;;;;;5034794;28;20382;-73
2023/08/10 01:41:48;;;;;;;0.08;0.08;;;15.90;99.90;;;;;;5052867;28;20019;-73
2023/08/10 01:44:14;;;;;;;0.00;0.00;;;16.20;99.90;;;;;;5034731;28;20097;-73
2023/08/10 01:46:42;;;;;;;0.00;0.00;;;16.00;99.90;;;;;;5052494;28;20032;-73
2023/08/10 01:49:10;;;;;;;0.00;0.00;;;16.00;99.90;;;;;;5034909;28;20036;-73
2023/08/10 01:51:39;;;;;;;0.00;0.00;;;16.10;99.90;;;;;;5052203;28;20024;-74
2023/08/10 01:54:07;;;;;;;0.00;0.00;;;16.20;99.90;;;;;;5034951;28;20041;-73
2023/08/10 01:56:33;;;;;;;0.00;0.00;;;16.40;99.90;;;;;;5052351;28;20025;-73
2023/08/10 01:58:59;;;;;;;0.00;0.00;;;16.30;99.90;;;;;;5034773;28;20079;-73
2023/08/10 02:01:25;;;;;;;0.00;0.00;;;16.20;99.90;;;;;;5034757;28;20592;-74
2023/08/10 02:03:51;;;;;;;0.20;0.20;;;16.10;99.90;;;;;;5052482;28;20040;-73
2023/08/10 02:06:17;;;;;;;0.00;0.00;;;16.00;99.90;;;;;;5034369;28;20032;-73
2023/08/10 02:08:43;;;;;;;0.00;0.00;;;15.70;99.90;;;;;;5034411;28;20017;-73
2023/08/10 02:11:09;;;;;;;0.00;0.00;;;15.90;99.90;;;;;;5034938;28;20393;-74
2023/08/10 02:13:35;;;;;;;0.10;0.10;;;15.90;99.90;;;;;;5052328;28;20477;-73
2023/08/10 02:16:01;;;;;;;0.00;0.00;;;16.00;99.90;;;;;;5034636;28;20021;-74
2023/08/10 02:18:27;;;;;;;0.00;0.00;;;16.10;99.90;;;;;;5052336;28;20028;-73
2023/08/10 02:20:54;;;;;;;0.00;0.00;;;16.20;99.90;;;;;;5034207;28;20053;-73
2023/08/10 02:23:19;;;;;;;0.00;0.00;;;16.20;99.90;;;;;;5034159;28;20599;-73
2023/08/10 02:25:45;;;;;;;0.00;0.00;;;15.90;99.90;;;;;;5052479;28;20123;-73
2023/08/10 02:28:11;;;;;;;0.00;0.00;;;15.90;99.90;;;;;;5034510;28;20055;-74
2023/08/10 02:30:38;;;;;;;0.00;0.00;;;15.90;99.90;;;;;;5052429;28;20115;-73
2023/08/10 02:33:05;;;;;;;0.00;0.00;;;16.00;99.90;;;;;;5052472;28;20456;-73
2023/08/10 02:35:31;;;;;;;0.10;0.10;;;16.20;99.90;;;;;;5051750;28;20106;-73
2023/08/10 02:37:56;;;;;;;0.00;0.00;;;15.60;99.90;;;;;;5052354;28;20021;-73
2023/08/10 02:40:22;;;;;;;0.38;0.38;;;15.50;99.90;;;;;;5034738;28;20021;-73
2023/08/10 02:42:48;;;;;;;0.10;0.10;;;15.20;99.90;;;;;;5038296;28;20066;-73
2023/08/10 02:45:14;;;;;;;0.08;0.08;;;15.30;99.90;;;;;;5052097;28;20386;-74
2023/08/10 02:47:40;;;;;;;0.00;0.00;;;15.30;99.90;;;;;;5052110;28;20025;-73
2023/08/10 02:50:07;;;;;;;0.10;0.10;;;15.50;99.90;;;;;;5051817;28;20021;-73
2023/08/10 02:52:33;;;;;;;0.00;0.00;;;15.70;99.90;;;;;;5039761;28;20067;-73
2023/08/10 02:54:59;;;;;;;0.00;0.00;;;15.80;99.90;;;;;;5048786;28;20040;-73
2023/08/10 02:57:25;;;;;;;0.10;0.10;;;15.80;99.90;;;;;;5052598;28;20021;-73
2023/08/10 02:59:50;;;;;;;0.00;0.00;;;15.60;99.90;;;;;;5037287;28;20628;-73
2023/08/10 03:02:17;;;;;;;0.00;0.00;;;15.70;99.90;;;;;;5037970;28;20091;-73
2023/08/10 03:04:44;;;;;;;0.20;0.20;;;15.70;99.90;;;;;;5037153;28;20129;-73
2023/08/10 03:07:11;;;;;;;0.10;0.10;;;15.70;99.90;;;;;;5037920;28;20156;-74
2023/08/10 03:09:38;;;;;;;0.08;0.08;;;15.80;99.90;;;;;;5037765;28;20032;-74
2023/08/10 03:12:05;;;;;;;0.08;0.08;;;15.90;99.90;;;;;;5037868;28;20032;-73
2023/08/10 03:14:31;;;;;;;0.00;0.00;;;15.90;99.90;;;;;;5055828;28;20043;-73
2023/08/10 03:16:58;;;;;;;0.00;0.00;;;15.80;99.90;;;;;;5037879;28;20436;-73
2023/08/10 03:19:23;;;;;;;0.00;0.00;;;15.80;99.90;;;;;;5037470;28;20029;-73
2023/08/10 03:21:51;;;;;;;0.30;0.30;;;15.50;99.90;;;;;;5037335;28;20396;-73
2023/08/10 03:24:17;;;;;;;0.00;0.00;;;15.30;99.90;;;;;;5055428;28;20041;-73
2023/08/10 03:26:42;;;;;;;0.35;0.35;;;15.40;99.90;;;;;;5055362;28;20104;-73
2023/08/10 03:29:08;;;;;;;0.00;0.00;;;15.50;99.90;;;;;;5037199;28;20536;-73
2023/08/10 03:31:35;;;;;;;0.20;0.20;;;15.50;99.90;;;;;;5055286;28;20108;-74
2023/08/10 03:34:01;;;;;;;0.00;0.00;;;15.60;99.90;;;;;;5055059;28;20484;-73
2023/08/10 03:36:27;;;;;;;0.00;0.00;;;15.60;99.90;;;;;;5055380;28;20024;-73
2023/08/10 03:38:53;;;;;;;0.00;0.00;;;15.60;99.90;;;;;;5037121;28;20029;-73
2023/08/10 03:41:19;;;;;;;0.08;0.08;;;15.60;99.90;;;;;;5037059;28;20021;-73
2023/08/10 03:43:45;;;;;;;0.00;0.00;;;15.50;99.90;;;;;;5037168;28;20033;-73
2023/08/10 03:46:10;;;;;;;0.05;0.05;;;15.60;99.90;;;;;;5036942;28;20029;-73
2023/08/10 03:48:36;;;;;;;0.05;0.05;;;15.70;99.90;;;;;;5054820;28;20060;-73
2023/08/10 03:51:02;;;;;;;0.00;0.00;;;15.50;99.90;;;;;;5036747;28;20378;-73
2023/08/10 03:53:28;;;;;;;0.50;0.50;;;15.50;99.90;;;;;;5037225;28;20029;-74
2023/08/10 03:55:54;;;;;;;1.05;0.98;;;15.50;99.90;;;;;;5054640;28;20028;-73
2023/08/10 03:58:21;;;;;;;0.00;0.00;;;15.60;99.90;;;;;;5037091;28;20053;-73
2023/08/10 04:00:47;;;;;;;0.00;0.00;;;15.40;99.90;;;;;;5054563;28;20028;-73
2023/08/10 04:03:15;;;;;;;0.00;0.00;;;15.50;99.90;;;;;;5036359;28;20116;-74
2023/08/10 04:05:41;;;;;;;0.00;0.00;;;15.70;99.90;;;;;;5036687;28;20153;-73
2023/08/10 04:08:08;;;;;;;0.10;0.10;;;15.60;99.90;;;;;;5053796;28;20098;-74
2023/08/10 04:10:34;;;;;;;0.00;0.00;;;15.60;99.90;;;;;;5054414;28;20057;-73
2023/08/10 04:13:01;;;;;;;0.00;0.00;;;15.60;99.90;;;;;;5054822;28;20036;-74
2023/08/10 04:15:28;;;;;;;0.00;0.00;;;15.60;99.90;;;;;;5054309;28;20021;-74
2023/08/10 04:17:54;;;;;;;0.00;0.00;;;15.60;99.90;;;;;;5054275;28;20025;-74
2023/08/10 04:20:19;;;;;;;0.20;0.20;;;15.50;99.90;;;;;;5036162;28;20366;-73
2023/08/10 04:22:45;;;;;;;0.00;0.00;;;15.50;99.90;;;;;;5053648;28;20020;-73
2023/08/10 04:25:11;;;;;;;0.10;0.10;;;15.40;99.90;;;;;;5053393;28;20477;-73
2023/08/10 04:27:37;;;;;;;0.00;0.00;;;15.50;99.90;;;;;;5054015;28;20025;-74
2023/08/10 04:30:04;;;;;;;0.00;0.00;;;15.40;99.90;;;;;;5054121;28;20025;-73
2023/08/10 04:32:30;;;;;;;0.00;0.00;;;15.40;99.90;;;;;;5063209;28;20112;-73
2023/08/10 04:34:56;;;;;;;0.00;0.00;;;15.40;99.90;;;;;;5054167;28;20116;-74
2023/08/10 04:37:22;;;;;;;0.00;0.00;;;15.50;99.90;;;;;;5053671;28;20032;-74
2023/08/10 04:39:48;;;;;;;0.00;0.00;;;15.60;99.90;;;;;;5054041;28;20103;-74
2023/08/10 04:42:14;;;;;;;0.28;0.28;;;15.60;99.90;;;;;;5053755;28;20032;-73
2023/08/10 04:44:40;;;;;;;0.10;0.10;;;15.60;99.90;;;;;;5053618;28;20032;-73
2023/08/10 04:47:06;;;;;;;0.28;0.28;;;15.60;99.90;;;;;;5053830;28;20104;-74
2023/08/10 04:49:32;;;;;;;0.00;0.00;;;15.50;99.90;;;;;;5036114;28;20063;-73
2023/08/10 04:51:58;;;;;;;0.10;0.10;;;15.40;99.90;;;;;;5053366;28;20358;-73
2023/08/10 04:54:23;;;;;;;0.15;0.15;;;15.30;99.90;;;;;;5053639;28;20027;-74
2023/08/10 04:56:49;;;;;;;0.05;0.05;;;15.30;99.90;;;;;;5053580;28;20060;-74
2023/08/10 04:59:16;;;;;;;0.00;0.00;;;15.50;99.90;;;;;;5035491;28;20059;-74
2023/08/10 05:01:42;;;;;;;0.10;0.10;;;15.40;99.90;;;;;;5031738;28;20103;-73
2023/08/10 05:04:09;;;;;;;0.05;0.05;;;15.40;99.90;;;;;;5049300;28;20032;-73
2023/08/10 05:06:35;;;;;;;0.10;0.10;;;15.60;99.90;;;;;;5052895;28;20029;-74
2023/08/10 05:09:02;;;;;;;0.47;0.20;;;15.60;99.90;;;;;;5053503;28;20039;-74
2023/08/10 05:11:28;;;;;;;0.47;0.47;;;15.40;99.90;;;;;;5053242;28;20028;-73
2023/08/10 05:13:54;;;;;;;0.00;0.00;;;15.20;99.90;;;;;;5053099;28;20781;-73
2023/08/10 05:16:19;;;;;;;0.00;0.00;;;15.30;99.90;;;;;;5053271;28;20017;-73
2023/08/10 05:18:45;;;;;;;0.00;0.00;;;15.40;99.90;;;;;;5053132;28;20485;-74
2023/08/10 05:21:11;;;;;;;0.00;0.00;;;15.30;99.90;;;;;;5034479;28;20061;-73
2023/08/10 05:23:37;;;;;;;0.10;0.10;;;15.30;99.90;;;;;;5052898;28;20033;-73
2023/08/10 05:26:04;;;;;;;0.08;0.08;;;15.50;99.90;;;;;;5035341;28;20037;-73
2023/08/10 05:28:30;;;;;;;0.08;0.08;;;15.50;99.90;;;;;;5052623;28;20082;-74
2023/08/10 05:30:56;;;;;;;1.08;0.90;;;15.80;99.90;;;;;;5053011;28;20473;-73
2023/08/10 05:33:21;;;;;;;0.00;0.00;;;15.60;99.90;;;;;;5053053;28;20532;-73
2023/08/10 05:35:47;;;;;;;0.00;0.00;;;15.90;99.90;;;;;;5052728;28;20466;-74
2023/08/10 05:38:13;;;;;;;0.00;0.00;;;15.80;99.90;;;;;;5052920;28;20025;-73
2023/08/10 05:40:39;;;;;;;0.00;0.00;;;15.80;99.90;;;;;;5052917;28;20037;-73
2023/08/10 05:43:05;;;;;;;0.45;0.45;;;15.90;99.90;;;;;;5052231;28;20025;-73
2023/08/10 05:45:31;;;;;;;0.00;0.00;;;16.00;99.90;;;;;;5052761;28;20063;-74
2023/08/10 05:47:57;;;;;;;0.00;0.00;;;16.00;99.90;;;;;;5034862;28;20449;-73
2023/08/10 05:50:22;;;;;;;1.10;0.68;;;16.00;99.90;;;;;;5052809;28;20110;-73
2023/08/10 05:52:49;;;;;;;1.30;1.17;;;16.00;99.90;;;;;;5053040;28;20036;-73
2023/08/10 05:55:15;;;;;;;0.10;0.10;;;15.80;99.90;;;;;;5052804;28;20025;-73
2023/08/10 05:57:41;;;;;;;0.00;0.00;;;15.70;99.90;;;;;;5051858;28;20468;-73
2023/08/10 06:00:08;;;;;;;0.10;0.10;;;15.90;99.90;;;;;;5052776;28;20108;-73
2023/08/10 06:02:41;;;;;;;2.97;0.50;;;16.10;99.90;;;;;;5052420;28;20401;-74
2023/08/10 06:05:07;;;;;;;0.05;0.05;;;16.10;99.90;;;;;;5052405;28;20029;-73
2023/08/10 06:07:33;;;;;;;0.15;0.15;;;16.20;99.90;;;;;;5052550;28;20040;-73
2023/08/10 06:10:00;;;;;;;0.30;0.30;;;16.40;99.90;;;;;;5052446;28;20035;-74
2023/08/10 06:12:25;;;;;;;0.00;0.00;;;16.40;99.90;;;;;;5034519;28;20049;-73
2023/08/10 06:14:51;;;;;;;0.10;0.10;;;16.50;99.90;;;;;;5052406;28;20168;-73
2023/08/10 06:17:17;;;;;;;0.00;0.00;;;16.70;99.90;;;;;;5052562;28;20473;-73
2023/08/10 06:19:53;;;;;;;0.20;0.20;;;16.80;99.90;;;;;;5052315;28;20091;-73
2023/08/10 06:22:19;;;;;;;0.00;0.00;;;16.90;99.90;;;;;;5052125;28;20057;-73
2023/08/10 06:24:46;;;;;;;3.00;0.43;;;17.00;99.90;;;;;;5052198;28;20080;-73
2023/08/10 06:27:12;;;;;;;0.80;0.80;;;16.90;99.90;;;;;;5033985;28;20389;-73
2023/08/10 06:29:38;;;;;;;0.03;0.03;;;16.80;99.90;;;;;;5034404;28;20032;-73
2023/08/10 06:32:07;;;;;;;0.57;0.57;;;16.80;99.90;;;;;;5054569;28;20420;-73
2023/08/10 06:34:36;;;;;;;0.00;0.00;;;16.70;99.90;;;;;;5056482;28;20064;-73
2023/08/10 06:37:03;;;;;;;1.02;0.80;;;16.70;99.90;;;;;;5056078;28;20462;-73
2023/08/10 06:39:29;;;;;;;0.38;0.30;;;16.70;99.90;;;;;;5056164;28;20512;-73
2023/08/10 06:41:54;;;;;;;0.00;0.00;;;16.80;99.90;;;;;;5055845;28;20052;-73
2023/08/10 06:44:25;;;;;;;1.00;0.75;;;17.10;99.90;;;;;;5037948;28;20070;-73
2023/08/10 06:46:50;;;;;;;0.00;0.00;;;16.90;99.90;;;;;;5038179;28;20654;-73
2023/08/10 06:49:21;;;;;;;3.65;0.73;;;16.90;99.90;;;;;;5055801;28;20029;-73
2023/08/10 06:51:48;;;;;;;1.83;0.98;;;17.10;99.90;;;;;;5037925;28;20033;-73
2023/08/10 06:54:13;;;;;;;0.17;0.17;;;17.10;99.90;;;;;;5055779;28;20032;-73
2023/08/10 06:56:39;;;;;;;1.27;1.00;;;17.20;99.90;;;;;;5055763;28;20025;-73
2023/08/10 06:59:05;;;;;;;0.10;0.10;;;17.30;99.90;;;;;;5037832;28;20036;-73
2023/08/10 07:01:31;;;;;;;0.60;0.60;;;17.60;99.90;;;;;;5055841;28;20393;-73
2023/08/10 07:03:56;;;;;;;0.30;0.15;;;17.70;99.90;;;;;;5055405;28;20090;-73
2023/08/10 07:06:22;;;;;;;0.00;0.00;;;17.60;99.90;;;;;;5055445;28;20021;-73
2023/08/10 07:08:52;;;;;;;1.55;0.45;;;17.80;99.90;;;;;;5055754;28;20029;-74
2023/08/10 07:11:18;;;;;;;1.27;0.82;;;18.00;99.90;;;;;;5055543;28;20029;-73
2023/08/10 07:13:46;;;;;;;0.20;0.20;;;17.90;99.90;;;;;;5055677;28;20056;-73
2023/08/10 07:16:12;;;;;;;0.00;0.00;;;18.00;99.90;;;;;;5055284;28;20515;-73
2023/08/10 07:18:38;;;;;;;0.22;0.22;;;17.70;99.90;;;;;;5055471;28;20025;-74
2023/08/10 07:21:04;;;;;;;0.10;0.10;;;17.80;99.90;;;;;;5055248;28;20032;-73
2023/08/10 07:23:30;;;;;;;0.35;0.35;;;17.90;99.90;;;;;;5055287;28;20041;-73
2023/08/10 07:25:56;;;;;;;0.25;0.25;;;18.10;99.90;;;;;;5037269;28;20116;-73
2023/08/10 07:28:23;;;;;;;1.98;0.38;;;18.10;99.90;;;;;;5055321;28;20029;-73
2023/08/10 07:30:53;;;;;;;0.52;0.10;;;18.10;99.90;;;;;;5031885;28;20078;-73
2023/08/10 07:33:19;;;;;;;5.78;0.45;;;18.10;99.90;;;;;;5034848;28;20038;-73
2023/08/10 07:35:46;;;;;;;0.08;0.08;;;18.30;99.90;;;;;;5052404;28;20528;-73
2023/08/10 07:38:13;;;;;;;4.75;1.45;;;18.60;99.90;;;;;;5054008;28;20017;-73
2023/08/10 07:40:38;;;;;;;1.05;0.68;;;18.70;99.90;;;;;;5054646;28;20501;-73
2023/08/10 07:43:04;;;;;;;0.55;0.55;;;18.60;99.90;;;;;;5053908;28;20108;-73
2023/08/10 07:45:30;;;;;;;2.28;1.23;;;18.70;99.90;;;;;;5054863;28;20032;-73
2023/08/10 07:47:56;;;;;;;0.00;0.00;;;18.80;99.90;;;;;;5036690;28;20040;-73
2023/08/10 07:50:22;;;;;;;0.15;0.15;;;19.10;99.90;;;;;;5036775;28;20083;-73
2023/08/10 07:52:47;;;;;;;0.28;0.28;;;19.20;99.90;;;;;;5036962;28;20025;-73
2023/08/10 07:55:13;;;;;;;0.00;0.00;;;19.10;99.90;;;;;;5054443;28;20036;-72
2023/08/10 07:57:39;;;;;;;0.00;0.00;;;19.20;99.90;;;;;;5036933;28;20025;-73
2023/08/10 08:00:06;;;;;;;0.20;0.20;;;19.20;99.90;;;;;;5054550;28;20040;-73
2023/08/10 08:02:41;;;;;;;0.20;0.20;;;19.40;99.90;;;;;;5054789;28;20029;-74
2023/08/10 08:05:07;;;;;;;0.00;0.00;;;19.30;99.90;;;;;;5052092;28;20033;-74
2023/08/10 08:07:33;;;;;;;0.88;0.25;;;19.70;99.90;;;;;;5054897;28;20016;-73
2023/08/10 08:10:00;;;;;;;0.20;0.20;;;19.80;99.90;;;;;;5036504;28;20426;-74
2023/08/10 08:12:26;;;;;;;0.00;0.00;;;19.80;99.90;;;;;;5054699;28;20043;-74
2023/08/10 08:14:53;;;;;;;0.00;0.00;;;19.80;99.90;;;;;;5054611;28;20086;-74
2023/08/10 08:17:19;;;;;;;0.45;0.30;;;20.00;99.90;;;;;;5054431;28;20501;-73
2023/08/10 08:19:45;;;;;;;0.00;0.00;;;19.90;99.90;;;;;;5054644;28;20413;-73
2023/08/10 08:22:11;;;;;;;0.00;0.00;;;20.20;99.90;;;;;;5035942;28;20070;-73
2023/08/10 08:24:36;;;;;;;0.10;0.10;;;20.10;99.90;;;;;;5036536;28;20481;-73
2023/08/10 08:27:02;;;;;;;0.40;0.40;;;20.20;99.90;;;;;;5053955;28;20033;-74
2023/08/10 08:29:30;;;;;;;4.80;0.65;;;20.20;99.10;;;;;;5054450;28;20109;-73
2023/08/10 08:31:56;;;;;;;0.00;0.00;;;20.30;99.30;;;;;;5054162;28;20025;-73
2023/08/10 08:34:22;;;;;;;0.00;0.00;;;20.20;99.70;;;;;;5054189;28;20039;-74
2023/08/10 08:36:47;;;;;;;0.22;0.10;;;20.40;99.90;;;;;;5053547;28;20452;-73
2023/08/10 08:39:13;;;;;;;0.00;0.00;;;20.40;98.30;;;;;;5054050;28;20552;-74
2023/08/10 08:41:41;;;;;;;0.00;0.00;;;20.60;99.90;;;;;;5036404;28;20465;-73
2023/08/10 08:44:08;;;;;;;0.00;0.00;;;20.60;99.90;;;;;;5035837;28;20130;-74
2023/08/10 08:46:37;;;;;;;0.20;0.20;;;20.70;99.70;;;;;;5053989;28;20027;-73
2023/08/10 08:49:05;;;;;;;0.00;0.00;;;20.60;99.50;;;;;;5053628;28;20488;-73
2023/08/10 08:51:31;;;;;;;0.10;0.10;;;20.80;99.90;;;;;;5035624;28;20036;-73
2023/08/10 08:54:02;;;;;;;0.00;0.00;;;20.70;99.90;;;;;;5035948;28;20027;-74
2023/08/10 08:56:28;;;;;;;0.10;0.10;;;21.10;99.70;;;;;;5053659;28;20033;-73
2023/08/10 08:58:54;;;;;;;0.20;0.20;;;21.20;99.30;;;;;;5053702;28;20036;-74
2023/08/10 09:01:20;;;;;;;0.00;0.00;;;21.20;98.10;;;;;;5035541;28;20848;-74
2023/08/10 09:03:47;;;;;;;0.57;0.52;;;21.40;98.90;;;;;;5053724;28;20039;-74
2023/08/10 09:06:13;;;;;;;0.00;0.00;;;21.50;99.00;;;;;;5059592;28;20033;-73
2023/08/10 09:08:39;;;;;;;1.17;0.70;;;21.60;98.60;;;;;;5035795;28;20024;-74
2023/08/10 09:11:05;;;;;;;0.45;0.20;;;21.60;98.70;;;;;;5053568;28;20448;-74
2023/08/10 09:13:31;;;;;;;3.03;0.43;;;21.60;98.20;;;;;;5052981;28;20041;-74
2023/08/10 09:16:15;;;;;;;1.38;1.20;;;21.70;97.90;;;;;;5053532;28;20017;-74
2023/08/10 09:18:44;;;;;;;0.10;0.10;;;21.60;98.10;;;;;;5035554;28;20040;-74
2023/08/10 09:21:13;;;;;;;0.00;0.00;;;21.90;98.50;;;;;;5052872;28;20032;-74
2023/08/10 09:23:39;;;;;;;0.00;0.00;;;22.00;97.90;;;;;;5052961;28;20037;-74
2023/08/10 09:26:14;;;;;;;1.38;0.40;;;22.10;98.60;;;;;;5053125;28;20033;-74
2023/08/10 09:28:40;;;;;;;0.30;0.28;;;22.30;97.50;;;;;;5053170;28;20383;-74
2023/08/10 09:31:08;;;;;;;0.08;0.08;;;22.30;98.00;;;;;;5053297;28;20033;-75
2023/08/10 09:33:35;;;;;;;0.10;0.10;;;22.20;97.60;;;;;;5035372;28;20024;-73
2023/08/10 09:36:03;;;;;;;0.00;0.00;;;22.10;98.40;;;;;;5053014;28;20047;-74
2023/08/10 09:38:29;;;;;;;0.00;0.00;;;22.30;98.60;;;;;;5052997;28;20021;-74
2023/08/10 09:41:13;;;;;;;0.03;0.03;;;22.40;98.10;;;;;;5053023;28;20033;-74
2023/08/10 09:43:41;;;;;;;0.00;0.00;;;22.70;98.00;;;;;;5052918;28;20025;-74
2023/08/10 09:46:09;;;;;;;0.30;0.30;;;22.70;98.30;;;;;;5052582;28;20025;-74
2023/08/10 09:48:44;;;;;;;0.10;0.10;;;22.70;97.00;;;;;;5052949;28;20079;-73
2023/08/10 09:51:11;;;;;;;0.00;0.00;;;22.70;99.40;;;;;;5052315;28;20052;-74
2023/08/10 09:53:37;;;;;;;0.00;0.00;;;23.00;97.70;;;;;;5052814;28;20025;-74
2023/08/10 09:56:07;;;;;;;0.15;0.15;;;23.40;97.80;;;;;;5034666;28;20374;-74
2023/08/10 09:58:36;;;;;;;0.00;0.00;;;23.60;96.70;;;;;;5052644;28;20056;-74
2023/08/10 10:01:03;;;;;;;0.00;0.00;;;24.10;95.80;;;;;;5052836;28;20028;-74
2023/08/10 10:03:31;;;;;;;0.10;0.10;;;24.10;95.40;;;;;;5052238;28;20481;-74
2023/08/10 10:05:58;;;;;;;0.50;0.28;;;24.10;96.50;;;;;;5051978;28;20047;-74
2023/08/10 10:08:26;;;;;;;0.00;0.00;;;23.90;95.10;;;;;;5052370;28;20056;-74
2023/08/10 10:10:55;;;;;;;0.00;0.00;;;24.30;96.60;;;;;;5052658;28;20071;-74
2023/08/10 10:13:22;;;;;;;0.43;0.35;;;24.20;95.40;;;;;;5052030;28;20033;-74
2023/08/10 10:15:48;;;;;;;0.00;0.00;;;24.10;94.80;;;;;;5034647;28;20378;-75
2023/08/10 10:18:14;;;;;;;0.10;0.10;;;24.20;95.30;;;;;;5051927;28;20052;-74
2023/08/10 10:20:44;;;;;;;0.25;0.25;;;23.90;95.70;;;;;;5018047;28;20062;-74
2023/08/10 10:23:17;;;;;;;0.30;0.30;;;24.00;96.20;;;;;;5052284;28;20520;-74
2023/08/10 10:26:04;;;;;;;0.00;0.00;;;24.20;95.80;;;;;;5052162;28;20041;-74
2023/08/10 10:28:34;;;;;;;0.00;0.00;;;24.00;95.20;;;;;;5052064;28;20112;-74
2023/08/10 10:31:05;;;;;;;0.00;0.00;;;24.10;95.30;;;;;;5045600;28;20394;-74
2023/08/10 10:33:32;;;;;;;0.38;0.38;;;24.00;95.40;;;;;;5035899;28;20130;-74
2023/08/10 10:36:13;;;;;;;0.22;0.17;;;23.90;95.60;;;;;;5051751;28;20060;-74
2023/08/10 10:38:49;;;;;;;0.10;0.10;;;23.80;95.40;;;;;;5045896;28;20462;-74
2023/08/10 10:41:27;;;;;;;1.98;0.80;;;24.00;95.70;;;;;;5047525;28;20029;-74
2023/08/10 10:43:52;;;;;;;0.00;0.00;;;24.50;95.90;;;;;;5052141;28;20033;-74
2023/08/10 10:46:38;;;;;;;0.08;0.08;;;25.30;95.40;;;;;;5052021;28;20110;-74
2023/08/10 10:49:11;;;;;;;0.10;0.10;;;25.50;94.30;;;;;;5051527;28;20044;-75
2023/08/10 10:51:58;;;;;;;0.00;0.00;;;25.10;94.50;;;;;;5034257;28;20393;-74
2023/08/10 10:54:25;;;;;;;0.30;0.30;;;25.50;94.70;;;;;;5051908;28;20045;-74
2023/08/10 10:56:52;;;;;;;0.22;0.22;;;25.50;94.50;;;;;;5051916;28;20025;-74
2023/08/10 10:59:20;;;;;;;0.40;0.20;;;24.80;94.10;;;;;;5033944;28;20059;-74
2023/08/10 11:01:48;;;;;;;0.00;0.00;;;24.90;94.70;;;;;;5051698;28;20055;-74
2023/08/10 11:04:14;;;;;;;0.38;0.38;;;24.90;94.70;;;;;;5051890;28;20126;-74
2023/08/10 11:06:39;;;;;;;0.47;0.43;;;24.40;94.80;;;;;;5051906;28;20024;-74
2023/08/10 11:09:09;;;;;;;8.70;0.65;;;24.70;94.90;;;;;;5051976;28;20405;-74
2023/08/10 11:11:36;;;;;;;6.13;0.57;;;23.90;95.70;;;;;;5051768;28;20389;-74
2023/08/10 11:14:03;;;;;;;2.53;0.52;;;24.20;96.10;;;;;;5051938;28;20032;-74
2023/08/10 11:16:39;;;;;;;0.17;0.17;;;24.70;95.30;;;;;;5051408;28;20772;-74
2023/08/10 11:19:09;;;;;;;1.88;0.57;;;25.10;94.40;;;;;;5053282;28;20431;-74
2023/08/10 11:21:38;;;;;;;0.00;0.00;;;24.90;94.70;;;;;;5055177;28;20493;-74
2023/08/10 11:24:06;;;;;;;0.82;0.43;;;25.20;95.00;;;;;;5055303;28;20124;-74
2023/08/10 11:26:34;;;;;;;0.00;0.00;;;25.40;94.80;;;;;;5055622;28;20035;-74
2023/08/10 11:29:00;;;;;;;0.25;0.25;;;26.00;95.50;;;;;;5037754;28;20029;-75
2023/08/10 11:31:26;;;;;;;0.00;0.00;;;26.40;93.70;;;;;;5055061;28;20111;-74
2023/08/10 11:33:51;;;;;;;0.45;0.30;;;26.50;94.00;;;;;;5055373;28;20025;-74
2023/08/10 11:36:17;;;;;;;1.73;0.73;;;26.20;93.90;;;;;;5054870;28;20436;-74
2023/08/10 11:38:46;;;;;;;1.48;0.75;;;25.20;94.90;;;;;;5055179;28;20037;-75
2023/08/10 11:41:11;;;;;;;0.57;0.35;;;25.00;95.00;;;;;;5037392;28;20033;-74
2023/08/10 11:43:37;;;;;;;0.20;0.20;;;25.30;95.00;;;;;;5055219;28;20059;-74
2023/08/10 11:46:03;;;;;;;0.20;0.20;;;24.70;95.10;;;;;;5054572;28;20090;-75
2023/08/10 11:48:30;;;;;;;0.03;0.03;;;25.10;95.20;;;;;;5054952;28;20029;-75
2023/08/10 11:51:00;;;;;;;5.63;0.43;;;25.20;94.90;;;;;;5054722;28;20559;-75
2023/08/10 11:53:36;;;;;;;0.10;0.10;;;25.30;95.00;;;;;;5055113;28;20033;-74
2023/08/10 11:56:06;;;;;;;0.00;0.00;;;25.20;95.40;;;;;;5054604;28;20033;-74
2023/08/10 11:58:32;;;;;;;0.10;0.10;;;25.30;94.70;;;;;;5055097;28;20432;-74
2023/08/10 12:01:03;;;;;;;1.90;0.43;;;25.90;94.30;;;;;;5036492;28;20036;-74
2023/08/10 12:03:29;;;;;;;0.00;0.00;;;26.20;93.70;;;;;;5055109;28;20385;-74
2023/08/10 12:05:57;;;;;;;0.00;0.00;;;26.70;93.70;;;;;;5054504;28;20033;-75
2023/08/10 12:08:30;;;;;;;0.00;0.00;;;26.80;93.10;;;;;;5054573;28;20409;-74
2023/08/10 12:11:11;;;;;;;0.03;0.03;;;27.40;93.60;;;;;;5054764;28;20488;-75
2023/08/10 12:13:44;;;;;;;0.00;0.00;;;27.90;91.90;;;;;;5054541;28;20036;-75
2023/08/10 12:16:10;;;;;;;0.20;0.20;;;27.80;92.30;;;;;;5054253;28;20056;-75
2023/08/10 12:18:37;;;;;;;0.00;0.00;;;27.60;91.70;;;;;;5054437;28;20044;-74
2023/08/10 12:21:03;;;;;;;0.52;0.45;;;27.60;93.10;;;;;;5054307;28;20037;-75
2023/08/10 12:23:29;;;;;;;0.25;0.25;;;28.20;92.50;;;;;;5036461;28;20056;-74
2023/08/10 12:25:55;;;;;;;0.00;0.00;;;28.20;91.60;;;;;;5054195;28;20033;-75
2023/08/10 12:28:21;;;;;;;0.08;0.08;;;28.20;92.40;;;;;;5036541;28;20032;-75
2023/08/10 12:30:49;;;;;;;0.30;0.20;;;28.50;90.80;;;;;;5053449;28;20020;-74
2023/08/10 12:33:16;;;;;;;0.00;0.00;;;27.30;92.30;;;;;;5054182;28;20083;-74
2023/08/10 12:35:43;;;;;;;0.75;0.73;;;27.40;92.10;;;;;;5053968;28;20025;-75
2023/08/10 12:38:12;;;;;;;1.08;0.20;;;27.60;91.00;;;;;;5054189;28;20460;-74
2023/08/10 12:40:39;;;;;;;0.15;0.15;;;28.00;91.70;;;;;;5054077;28;20087;-75
2023/08/10 12:43:05;;;;;;;0.00;0.00;;;27.60;91.80;;;;;;5053810;28;20029;-75
2023/08/10 12:45:33;;;;;;;3.20;0.10;;;28.10;91.80;;;;;;5053685;28;20048;-74
2023/08/10 12:48:00;;;;;;;0.57;0.28;;;28.60;90.30;;;;;;5035501;28;20381;-74